createdAt,value
2022-10-21T00:00:53.871Z,23.63
2022-10-21T00:03:20.662Z,23.35
2022-10-21T00:05:47.675Z,22.00
2022-10-21T00:08:14.860Z,21.70
2022-10-21T00:10:41.642Z,22.63
2022-10-21T00:13:08.322Z,21.98
2022-10-21T00:15:34.905Z,23.33
2022-10-21T00:18:01.472Z,21.70
2022-10-21T00:20:28.071Z,22.52
2022-10-21T00:22:54.660Z,22.52
2022-10-21T00:25:21.269Z,22.35
2022-10-21T00:27:47.882Z,22.58
2022-10-21T00:30:14.490Z,22.85
2022-10-21T00:32:41.167Z,22.08
2022-10-21T00:35:07.912Z,23.65
2022-10-21T00:37:34.520Z,23.55
2022-10-21T00:40:01.112Z,22.73
2022-10-21T00:42:32.801Z,23.08
2022-10-21T00:45:02.223Z,25.23
2022-10-21T00:47:29.269Z,23.63
2022-10-21T00:50:01.691Z,22.60
2022-10-21T00:52:30.066Z,22.08
2022-10-21T00:54:58.073Z,22.75
2022-10-21T00:57:25.662Z,22.70
2022-10-21T00:59:53.997Z,22.67
2022-10-21T01:02:20.554Z,23.75
2022-10-21T01:04:47.371Z,24.42
2022-10-21T01:07:14.687Z,24.45
2022-10-21T01:09:41.349Z,24.20
2022-10-21T01:12:10.149Z,24.58
2022-10-21T01:14:48.253Z,25.75
2022-10-21T01:17:44.147Z,23.88
2022-10-21T01:20:38.165Z,24.10
2022-10-21T01:23:10.494Z,24.23
2022-10-21T01:25:55.726Z,24.83
2022-10-21T01:28:25.066Z,24.17
2022-10-21T01:31:04.458Z,24.75
2022-10-21T01:33:37.561Z,24.63
2022-10-21T01:36:10.224Z,23.83
2022-10-21T01:38:42.881Z,24.60
2022-10-21T01:41:23.086Z,26.25
2022-10-21T01:43:52.485Z,25.15
2022-10-21T01:46:21.630Z,24.25
2022-10-21T01:48:49.752Z,24.83
2022-10-21T01:51:17.943Z,23.75
2022-10-21T01:53:50.578Z,24.25
2022-10-21T01:56:18.010Z,23.65
2022-10-21T01:58:45.802Z,23.60
2022-10-21T02:01:13.876Z,23.02
2022-10-21T02:03:42.104Z,23.17
2022-10-21T02:06:08.752Z,23.67
2022-10-21T02:08:35.544Z,23.38
2022-10-21T02:11:05.896Z,22.17
2022-10-21T02:13:35.703Z,21.30
2022-10-21T02:16:03.682Z,21.45
2022-10-21T02:18:30.443Z,20.67
2022-10-21T02:20:59.438Z,20.45
2022-10-21T02:23:35.944Z,21.55
2022-10-21T02:26:02.618Z,20.80
2022-10-21T02:28:29.378Z,21.02
2022-10-21T02:31:10.963Z,21.17
2022-10-21T02:33:47.237Z,20.20
2022-10-21T02:36:22.888Z,20.42
2022-10-21T02:38:57.109Z,21.23
2022-10-21T02:41:24.797Z,21.27
2022-10-21T02:43:51.330Z,20.40
2022-10-21T02:46:17.927Z,20.17
2022-10-21T02:48:46.020Z,20.88
2022-10-21T02:51:12.970Z,20.85
2022-10-21T02:53:39.789Z,19.50
2022-10-21T02:56:06.593Z,19.48
2022-10-21T02:58:33.396Z,19.60
2022-10-21T03:00:59.988Z,19.15
2022-10-21T03:03:26.708Z,20.55
2022-10-21T03:05:53.268Z,21.45
2022-10-21T03:08:19.840Z,20.80
2022-10-21T03:10:50.616Z,20.40
2022-10-21T03:13:19.846Z,22.23
2022-10-21T03:15:46.494Z,22.50
2022-10-21T03:18:13.072Z,21.65
2022-10-21T03:20:39.661Z,21.38
2022-10-21T03:23:06.247Z,19.05
2022-10-21T03:25:35.499Z,17.83
2022-10-21T03:28:02.476Z,15.20
2022-10-21T03:30:29.096Z,14.68
2022-10-21T03:32:55.703Z,14.57
2022-10-21T03:35:22.326Z,13.48
2022-10-21T03:37:48.931Z,14.52
2022-10-21T03:40:15.648Z,14.75
2022-10-21T03:42:42.450Z,14.93
2022-10-21T03:45:09.381Z,14.73
2022-10-21T03:47:35.941Z,15.95
2022-10-21T03:50:04.566Z,15.55
2022-10-21T03:52:33.211Z,14.85
2022-10-21T03:54:59.771Z,15.13
2022-10-21T03:57:26.339Z,16.02
2022-10-21T03:59:52.909Z,17.88
2022-10-21T04:02:19.486Z,18.33
2022-10-21T04:04:46.027Z,19.17
2022-10-21T04:07:12.672Z,19.63
2022-10-21T04:09:39.212Z,20.35
2022-10-21T04:12:05.815Z,21.42
2022-10-21T04:14:32.434Z,19.77
2022-10-21T04:17:06.955Z,20.02
2022-10-21T04:19:34.004Z,20.85
2022-10-21T04:22:00.579Z,23.92
2022-10-21T04:24:27.148Z,22.55
2022-10-21T04:26:53.772Z,21.67
2022-10-21T04:29:20.380Z,23.58
2022-10-21T04:31:47.045Z,21.83
2022-10-21T04:34:13.769Z,22.88
2022-10-21T04:36:40.376Z,22.73
2022-10-21T04:39:06.973Z,24.13
2022-10-21T04:41:33.830Z,23.65
2022-10-21T04:44:01.409Z,23.27
2022-10-21T04:46:27.979Z,23.02
2022-10-21T04:48:54.539Z,22.95
2022-10-21T04:51:21.137Z,21.45
2022-10-21T04:53:47.715Z,23.17
2022-10-21T04:56:14.288Z,20.90
2022-10-21T04:58:40.855Z,22.17
2022-10-21T05:01:07.481Z,21.15
2022-10-21T05:03:34.107Z,22.30
2022-10-21T05:06:00.680Z,22.92
2022-10-21T05:08:27.249Z,22.42
2022-10-21T05:10:57.285Z,22.92
2022-10-21T05:13:23.844Z,21.85
2022-10-21T05:15:50.452Z,22.63
2022-10-21T05:18:17.055Z,20.65
2022-10-21T05:20:43.818Z,22.50
2022-10-21T05:23:10.440Z,23.65
2022-10-21T05:25:37.120Z,23.30
2022-10-21T05:28:03.787Z,22.35
2022-10-21T05:30:30.449Z,23.85
2022-10-21T05:32:57.024Z,23.42
2022-10-21T05:35:23.603Z,23.20
2022-10-21T05:37:50.224Z,22.80
2022-10-21T05:40:18.430Z,22.70
2022-10-21T05:42:45.651Z,22.45
2022-10-21T05:45:12.443Z,24.00
2022-10-21T05:47:40.822Z,22.17
2022-10-21T05:50:08.220Z,21.90
2022-10-21T05:52:37.511Z,23.40
2022-10-21T05:55:04.597Z,22.20
2022-10-21T05:57:34.529Z,21.15
2022-10-21T06:00:01.100Z,20.70
2022-10-21T06:02:27.673Z,21.13
2022-10-21T06:04:54.235Z,19.23
2022-10-21T06:07:20.829Z,19.05
2022-10-21T06:09:47.370Z,19.00
2022-10-21T06:12:13.980Z,17.63
2022-10-21T06:14:40.613Z,18.60
2022-10-21T06:17:07.177Z,18.00
2022-10-21T06:19:34.089Z,17.52
2022-10-21T06:22:00.721Z,18.38
2022-10-21T06:24:27.626Z,17.50
2022-10-21T06:26:54.217Z,18.20
2022-10-21T06:29:20.807Z,17.50
2022-10-21T06:31:47.406Z,16.92
2022-10-21T06:34:14.048Z,17.80
2022-10-21T06:36:40.648Z,17.38
2022-10-21T06:39:08.079Z,18.60
2022-10-21T06:41:34.731Z,16.77
2022-10-21T06:44:01.357Z,16.25
2022-10-21T06:46:28.007Z,16.33
2022-10-21T06:48:54.562Z,17.75
2022-10-21T06:51:22.452Z,20.33
2022-10-21T06:53:53.188Z,23.60
2022-10-21T06:56:20.339Z,20.48
2022-10-21T06:58:48.920Z,20.77
2022-10-21T07:01:28.022Z,19.33
2022-10-21T07:04:02.098Z,18.15
2022-10-21T07:06:28.720Z,18.20
2022-10-21T07:08:59.215Z,18.73
2022-10-21T07:11:26.792Z,17.67
2022-10-21T07:13:53.629Z,18.70
2022-10-21T07:16:27.753Z,18.90
2022-10-21T07:18:55.269Z,18.60
2022-10-21T07:21:23.306Z,17.55
2022-10-21T07:23:55.574Z,18.23
2022-10-21T07:26:24.935Z,17.80
2022-10-21T07:28:52.232Z,18.23
2022-10-21T07:31:19.527Z,17.88
2022-10-21T07:33:46.531Z,17.17
2022-10-21T07:36:18.996Z,17.70
2022-10-21T07:38:49.058Z,17.45
2022-10-21T07:41:16.784Z,16.92
2022-10-21T07:43:43.609Z,18.67
2022-10-21T07:46:10.345Z,17.92
2022-10-21T07:48:37.076Z,17.95
2022-10-21T07:51:07.969Z,18.95
2022-10-21T07:53:34.779Z,17.83
2022-10-21T07:56:02.336Z,17.33
2022-10-21T07:58:29.626Z,17.92
2022-10-21T08:01:00.161Z,19.27
2022-10-21T08:03:26.788Z,19.65
2022-10-21T08:05:53.402Z,20.38
2022-10-21T08:08:22.674Z,20.85
2022-10-21T08:13:21.822Z,19.65
2022-10-21T08:15:50.073Z,20.33
2022-10-21T08:18:17.136Z,20.52
2022-10-21T08:20:45.132Z,19.88
2022-10-21T08:23:12.874Z,19.50
2022-10-21T08:25:39.430Z,19.48
2022-10-21T08:28:06.757Z,18.55
2022-10-21T08:30:33.345Z,13.13
2022-10-21T08:33:00.324Z,13.63
2022-10-21T08:35:27.480Z,10.93
2022-10-21T08:37:54.260Z,10.18
2022-10-21T08:40:21.203Z,8.73
2022-10-21T08:42:47.914Z,7.70
2022-10-21T08:45:27.418Z,7.57
2022-10-21T08:47:59.581Z,10.27
2022-10-21T08:50:29.309Z,13.52
2022-10-21T08:52:55.935Z,11.07
2022-10-21T08:55:26.125Z,10.73
2022-10-21T08:57:55.984Z,9.77
2022-10-21T09:00:24.316Z,10.00
2022-10-21T09:03:03.193Z,9.65
2022-10-21T09:05:51.390Z,8.20
2022-10-21T09:08:21.205Z,7.68
2022-10-21T09:10:56.185Z,7.00
2022-10-21T09:13:31.682Z,7.25
2022-10-21T09:16:04.301Z,5.82
2022-10-21T09:18:31.231Z,5.10
2022-10-21T09:21:10.092Z,5.00
2022-10-21T09:23:55.162Z,4.55
2022-10-21T09:26:33.431Z,4.65
2022-10-21T09:29:23.425Z,4.05
2022-10-21T09:31:55.192Z,4.18
2022-10-21T09:34:33.197Z,3.40
2022-10-21T09:37:00.560Z,3.65
2022-10-21T09:39:38.802Z,3.60
2022-10-21T09:42:11.549Z,3.50
2022-10-21T09:44:45.624Z,4.05
2022-10-21T09:47:19.993Z,4.20
2022-10-21T09:50:06.341Z,4.40
2022-10-21T09:52:36.225Z,4.47
2022-10-21T09:55:03.745Z,4.18
2022-10-21T09:57:41.003Z,5.07
2022-10-21T10:00:11.122Z,4.88
2022-10-21T10:02:45.346Z,5.07
2022-10-21T10:05:30.458Z,5.10
2022-10-21T10:07:57.135Z,4.40
2022-10-21T10:10:31.565Z,4.60
2022-10-21T10:12:58.799Z,3.90
2022-10-21T10:15:32.854Z,4.22
2022-10-21T10:18:00.330Z,4.25
2022-10-21T10:20:26.937Z,3.85
2022-10-21T10:22:59.381Z,4.10
2022-10-21T10:25:32.901Z,3.40
2022-10-21T10:28:02.035Z,3.17
2022-10-21T10:30:40.911Z,3.30
2022-10-21T10:33:10.299Z,2.58
2022-10-21T10:35:37.843Z,2.80
2022-10-21T10:38:05.389Z,2.80
2022-10-21T10:40:39.745Z,2.78
2022-10-21T10:43:11.381Z,2.30
2022-10-21T10:45:38.055Z,2.63
2022-10-21T10:48:05.885Z,2.42
2022-10-21T10:50:38.545Z,2.30
2022-10-21T10:53:17.095Z,2.75
2022-10-21T10:55:45.522Z,2.80
2022-10-21T10:58:15.346Z,2.28
2022-10-21T11:00:44.925Z,2.13
2022-10-21T11:03:15.646Z,2.22
2022-10-21T11:05:51.177Z,2.40
2022-10-21T11:08:33.313Z,2.03
2022-10-21T11:11:03.112Z,2.30
2022-10-21T11:13:29.834Z,1.73
2022-10-21T11:16:11.501Z,1.90
2022-10-21T11:18:56.728Z,2.20
2022-10-21T11:21:38.397Z,1.50
2022-10-21T11:24:10.802Z,2.05
2022-10-21T11:26:37.362Z,1.48
2022-10-21T11:29:22.722Z,1.40
2022-10-21T11:32:10.139Z,1.30
2022-10-21T11:34:48.274Z,1.40
2022-10-21T11:37:23.958Z,1.38
2022-10-21T11:39:50.578Z,1.60
2022-10-21T11:42:31.263Z,1.42
2022-10-21T11:45:00.940Z,1.80
2022-10-21T11:47:41.167Z,1.42
2022-10-21T11:50:16.881Z,1.45
2022-10-21T11:52:58.778Z,1.48
2022-10-21T11:55:31.621Z,1.40
2022-10-21T11:58:09.377Z,1.45
2022-10-21T12:00:40.729Z,1.67
2022-10-21T12:03:13.382Z,1.60
2022-10-21T12:05:52.155Z,1.40
2022-10-21T12:08:27.254Z,1.38
2022-10-21T12:11:04.408Z,1.52
2022-10-21T12:13:43.910Z,1.40
2022-10-21T12:16:13.075Z,1.45
2022-10-21T12:18:53.699Z,1.45
2022-10-21T12:21:23.086Z,1.30
2022-10-21T12:23:52.626Z,1.17
2022-10-21T12:26:28.638Z,1.40
2022-10-21T12:28:58.759Z,1.40
2022-10-21T12:31:45.611Z,1.83
2022-10-21T12:34:13.948Z,1.40
2022-10-21T12:36:50.709Z,1.70
2022-10-21T12:39:34.071Z,1.23
2022-10-21T12:42:14.179Z,1.95
2022-10-21T12:44:46.251Z,2.13
2022-10-21T12:47:32.515Z,4.20
2022-10-21T12:50:08.025Z,2.35
2022-10-21T12:52:38.406Z,2.38
2022-10-21T12:55:08.641Z,2.10
2022-10-21T12:57:37.133Z,1.70
2022-10-21T13:03:00.224Z,2.30
2022-10-21T13:05:39.172Z,1.65
2022-10-21T13:08:24.130Z,1.73
2022-10-21T13:11:20.569Z,1.88
2022-10-21T13:13:47.554Z,2.40
2022-10-21T13:16:20.467Z,2.22
2022-10-21T13:18:59.432Z,2.00
2022-10-21T13:21:30.261Z,2.40
2022-10-21T13:23:58.211Z,1.83
2022-10-21T13:26:26.561Z,1.85
2022-10-21T13:28:57.994Z,1.90
2022-10-21T13:31:24.819Z,2.60
2022-10-21T13:33:52.608Z,2.88
2022-10-21T13:39:06.628Z,2.80
2022-10-21T13:41:33.363Z,2.35
2022-10-21T13:44:03.665Z,3.00
2022-10-21T13:46:40.814Z,2.40
2022-10-21T13:49:27.240Z,2.60
2022-10-21T13:51:53.882Z,2.75
2022-10-21T13:54:20.451Z,2.50
2022-10-21T13:56:47.338Z,2.72
2022-10-21T13:59:40.331Z,2.63
2022-10-21T14:02:06.963Z,2.58
2022-10-21T14:04:40.034Z,3.00
2022-10-21T14:07:09.052Z,2.22
2022-10-21T14:09:45.148Z,2.38
2022-10-21T14:12:21.210Z,2.60
2022-10-21T14:14:48.103Z,2.70
2022-10-21T14:17:16.854Z,2.20
2022-10-21T14:19:46.380Z,2.45
2022-10-21T14:22:17.903Z,2.47
2022-10-21T14:24:46.642Z,2.50
2022-10-21T14:27:17.348Z,2.78
2022-10-21T14:29:44.526Z,2.75
2022-10-21T14:32:15.470Z,2.22
2022-10-21T14:35:00.196Z,2.78
2022-10-21T14:37:26.847Z,2.10
2022-10-21T14:39:53.469Z,3.13
2022-10-21T14:42:24.324Z,2.78
2022-10-21T14:44:52.383Z,2.50
2022-10-21T14:47:20.103Z,2.92
2022-10-21T14:49:48.605Z,2.75
2022-10-21T14:52:27.941Z,2.80
2022-10-21T14:54:56.025Z,2.35
2022-10-21T14:57:27.007Z,2.63
2022-10-21T14:59:53.732Z,2.65
2022-10-21T15:02:27.013Z,2.40
2022-10-21T15:04:55.539Z,2.72
2022-10-21T15:07:29.037Z,2.50
2022-10-21T15:10:02.121Z,2.70
2022-10-21T15:12:32.397Z,2.97
2022-10-21T15:15:01.604Z,2.55
2022-10-21T15:17:28.258Z,2.70
2022-10-21T15:19:54.988Z,2.72
2022-10-21T15:22:28.750Z,2.50
2022-10-21T15:24:58.510Z,3.00
2022-10-21T15:27:37.099Z,2.80
2022-10-21T15:30:13.411Z,3.10
2022-10-21T15:32:40.054Z,3.05
2022-10-21T15:35:12.551Z,3.72
2022-10-21T15:37:39.309Z,5.50
2022-10-21T15:40:06.162Z,4.55
2022-10-21T15:42:32.831Z,5.18
2022-10-21T15:44:59.460Z,5.43
2022-10-21T15:47:26.105Z,3.72
2022-10-21T15:49:56.394Z,3.08
2022-10-21T15:52:23.002Z,3.33
2022-10-21T15:54:49.621Z,2.83
2022-10-21T15:57:20.268Z,2.60
2022-10-21T15:59:47.111Z,2.92
2022-10-21T16:02:16.567Z,2.67
2022-10-21T16:04:44.131Z,2.78
2022-10-21T16:07:16.736Z,2.58
2022-10-21T16:09:43.353Z,2.58
2022-10-21T16:12:10.973Z,2.78
2022-10-21T16:14:37.625Z,2.58
2022-10-21T16:17:04.324Z,2.20
2022-10-21T16:19:30.854Z,2.30
2022-10-21T16:21:57.692Z,2.50
2022-10-21T16:24:24.566Z,1.80
2022-10-21T16:26:51.165Z,2.20
2022-10-21T16:29:24.790Z,2.30
2022-10-21T16:31:51.928Z,2.10
2022-10-21T16:34:19.059Z,1.88
2022-10-21T16:36:45.850Z,2.08
2022-10-21T16:39:14.637Z,2.60
2022-10-21T16:41:41.249Z,2.05
2022-10-21T16:44:07.876Z,2.42
2022-10-21T16:46:40.015Z,2.17
2022-10-21T16:49:18.449Z,2.00
2022-10-21T16:51:48.257Z,2.05
2022-10-21T16:54:16.038Z,2.20
2022-10-21T16:56:42.697Z,1.70
2022-10-21T16:59:09.282Z,2.60
2022-10-21T17:01:36.050Z,3.40
2022-10-21T17:04:02.796Z,3.10
2022-10-21T17:06:29.374Z,2.22
2022-10-21T17:08:56.197Z,2.50
2022-10-21T17:11:24.263Z,2.80
2022-10-21T17:13:51.109Z,2.53
2022-10-21T17:16:20.118Z,2.17
2022-10-21T17:18:47.680Z,2.38
2022-10-21T17:21:19.159Z,2.50
2022-10-21T17:23:45.827Z,2.13
2022-10-21T17:26:12.504Z,2.35
2022-10-21T17:28:39.064Z,3.15
2022-10-21T17:31:05.766Z,2.55
2022-10-21T17:33:32.359Z,2.35
2022-10-21T17:35:58.995Z,2.78
2022-10-21T17:38:25.557Z,2.38
2022-10-21T17:40:53.506Z,2.25
2022-10-21T17:43:20.112Z,2.70
2022-10-21T17:45:46.651Z,3.35
2022-10-21T17:48:13.256Z,2.90
2022-10-21T17:50:40.108Z,2.85
2022-10-21T17:53:06.957Z,3.22
2022-10-21T17:55:33.665Z,3.50
2022-10-21T17:58:00.244Z,2.80
2022-10-21T18:00:26.873Z,2.75
2022-10-21T18:02:53.439Z,2.42
2022-10-21T18:05:20.010Z,2.13
2022-10-21T18:07:46.577Z,2.40
2022-10-21T18:10:13.121Z,2.13
2022-10-21T18:12:39.954Z,2.17
2022-10-21T18:15:06.863Z,2.30
2022-10-21T18:17:34.535Z,3.25
2022-10-21T18:20:01.097Z,2.80
2022-10-21T18:22:27.674Z,3.72
2022-10-21T18:24:54.245Z,4.07
2022-10-21T18:27:21.160Z,2.85
2022-10-21T18:29:47.804Z,2.95
2022-10-21T18:32:14.846Z,4.40
2022-10-21T18:34:42.363Z,3.83
2022-10-21T18:37:08.966Z,3.50
2022-10-21T18:39:35.449Z,4.50
2022-10-21T18:42:01.972Z,4.30
2022-10-21T18:44:30.396Z,2.95
2022-10-21T18:46:57.002Z,3.67
2022-10-21T18:49:23.599Z,4.57
2022-10-21T18:51:50.197Z,3.58
2022-10-21T18:54:16.928Z,3.90
2022-10-21T18:56:44.852Z,4.05
2022-10-21T18:59:12.372Z,4.30
2022-10-21T19:01:40.066Z,4.88
2022-10-21T19:04:07.054Z,3.03
2022-10-21T19:06:33.866Z,2.45
2022-10-21T19:09:03.593Z,3.25
2022-10-21T19:11:30.307Z,2.40
2022-10-21T19:13:56.913Z,2.13
2022-10-21T19:16:23.552Z,2.13
2022-10-21T19:18:50.264Z,2.67
2022-10-21T19:21:17.932Z,3.10
2022-10-21T19:23:44.773Z,3.08
2022-10-21T19:26:11.814Z,2.90
2022-10-21T19:28:39.008Z,2.30
2022-10-21T19:31:06.326Z,3.38
2022-10-21T19:33:33.523Z,2.47
2022-10-21T19:36:01.120Z,2.10
2022-10-21T19:38:43.168Z,2.30
2022-10-21T19:41:11.138Z,2.08
2022-10-21T19:43:38.003Z,1.67
2022-10-21T19:46:05.701Z,1.77
2022-10-21T19:48:32.673Z,2.42
2022-10-21T19:50:59.721Z,2.28
2022-10-21T19:53:27.265Z,3.00
2022-10-21T19:55:54.486Z,2.25
2022-10-21T19:58:21.137Z,2.08
2022-10-21T20:00:47.803Z,2.53
2022-10-21T20:03:14.739Z,2.30
2022-10-21T20:05:41.661Z,3.40
2022-10-21T20:08:08.558Z,3.67
2022-10-21T20:10:35.171Z,3.97
2022-10-21T20:13:01.770Z,3.60
2022-10-21T20:15:28.446Z,2.95
2022-10-21T20:17:55.203Z,3.10
2022-10-21T20:20:21.791Z,3.08
2022-10-21T20:22:48.456Z,4.10
2022-10-21T20:25:15.034Z,5.43
2022-10-21T20:27:41.914Z,6.63
2022-10-21T20:30:09.198Z,4.32
2022-10-21T20:32:35.865Z,4.05
2022-10-21T20:35:02.469Z,2.95
2022-10-21T20:37:29.114Z,3.08
2022-10-21T20:39:55.795Z,3.03
2022-10-21T20:42:22.392Z,2.83
2022-10-21T20:44:49.432Z,4.10
2022-10-21T20:47:17.009Z,5.15
2022-10-21T20:49:43.719Z,5.40
2022-10-21T20:52:10.336Z,6.85
2022-10-21T20:54:36.913Z,5.82
2022-10-21T20:57:03.763Z,3.40
2022-10-21T20:59:30.355Z,3.70
2022-10-21T21:01:56.912Z,3.67
2022-10-21T21:04:25.330Z,5.05
2022-10-21T21:06:52.248Z,4.03
2022-10-21T21:12:06.612Z,4.38
2022-10-21T21:14:33.420Z,4.55
2022-10-21T21:17:01.046Z,5.80
2022-10-21T21:19:27.695Z,5.50
2022-10-21T21:21:54.431Z,4.75
2022-10-21T21:24:21.237Z,4.22
2022-10-21T21:26:50.273Z,3.75
2022-10-21T21:29:16.982Z,3.80
2022-10-21T21:31:43.693Z,3.83
2022-10-21T21:34:10.290Z,3.67
2022-10-21T21:36:37.305Z,4.30
2022-10-21T21:39:04.891Z,4.20
2022-10-21T21:41:31.657Z,5.20
2022-10-21T21:43:58.367Z,4.82
2022-10-21T21:46:28.104Z,4.78
2022-10-21T21:48:59.595Z,5.22
2022-10-21T21:51:29.592Z,5.90
2022-10-21T21:53:56.620Z,4.40
2022-10-21T21:56:23.780Z,5.18
2022-10-21T21:58:57.711Z,5.63
2022-10-21T22:01:26.525Z,4.80
2022-10-21T22:03:53.298Z,4.93
2022-10-21T22:06:21.194Z,4.60
2022-10-21T22:08:48.269Z,4.65
2022-10-21T22:11:16.468Z,4.70
2022-10-21T22:13:43.489Z,5.60
2022-10-21T22:16:11.647Z,6.20
2022-10-21T22:18:38.499Z,6.35
2022-10-21T22:21:09.010Z,5.30
2022-10-21T22:23:36.054Z,5.10
2022-10-21T22:26:02.638Z,5.22
2022-10-21T22:28:29.200Z,5.90
2022-10-21T22:31:00.298Z,5.47
2022-10-21T22:33:27.430Z,4.72
2022-10-21T22:35:54.081Z,5.72
2022-10-21T22:38:21.125Z,5.50
2022-10-21T22:40:51.688Z,5.88
2022-10-21T22:43:18.516Z,5.65
2022-10-21T22:45:47.324Z,5.63
2022-10-21T22:48:14.734Z,5.18
2022-10-21T22:50:41.412Z,5.13
2022-10-21T22:53:08.001Z,5.60
2022-10-21T22:55:34.618Z,5.60
2022-10-21T22:58:01.165Z,5.15
2022-10-21T23:00:27.747Z,4.70
2022-10-21T23:02:54.341Z,4.32
2022-10-21T23:05:21.470Z,4.95
2022-10-21T23:07:50.987Z,4.57
2022-10-21T23:10:17.666Z,3.50
2022-10-21T23:12:44.210Z,3.75
2022-10-21T23:15:10.983Z,3.08
2022-10-21T23:17:37.626Z,3.33
2022-10-21T23:20:04.341Z,2.70
2022-10-21T23:22:30.937Z,3.08
2022-10-21T23:24:57.532Z,2.75
2022-10-21T23:27:24.091Z,2.60
2022-10-21T23:29:50.727Z,2.10
2022-10-21T23:32:17.407Z,2.28
2022-10-21T23:34:44.020Z,1.95
2022-10-21T23:37:10.739Z,2.33
2022-10-21T23:39:38.150Z,2.47
2022-10-21T23:42:04.664Z,2.60
2022-10-21T23:44:31.307Z,1.90
2022-10-21T23:46:57.903Z,1.92
2022-10-21T23:49:24.560Z,2.08
2022-10-21T23:51:51.175Z,1.75
2022-10-21T23:54:19.192Z,1.45
2022-10-21T23:56:45.769Z,1.67
2022-10-21T23:59:12.461Z,1.70
